createdAt,value
2023-01-19T00:01:00.481Z,7.38
2023-01-19T00:03:29.808Z,7.25
2023-01-19T00:06:00.188Z,7.65
2023-01-19T00:08:27.545Z,7.10
2023-01-19T00:10:54.802Z,6.65
2023-01-19T00:13:26.790Z,7.38
2023-01-19T00:15:56.508Z,6.40
2023-01-19T00:18:26.050Z,7.00
2023-01-19T00:20:53.399Z,7.10
2023-01-19T00:23:21.140Z,7.25
2023-01-19T00:25:49.248Z,7.25
2023-01-19T00:28:18.822Z,7.25
2023-01-19T00:30:51.065Z,7.65
2023-01-19T00:33:18.287Z,6.97
2023-01-19T00:35:45.570Z,6.88
2023-01-19T00:38:15.422Z,6.80
2023-01-19T00:40:42.654Z,7.00
2023-01-19T00:43:09.969Z,6.63
2023-01-19T00:45:39.793Z,6.47
2023-01-19T00:48:07.156Z,6.47
2023-01-19T00:50:36.661Z,6.40
2023-01-19T00:53:06.080Z,6.57
2023-01-19T00:55:33.597Z,6.38
2023-01-19T00:58:01.090Z,6.43
2023-01-19T01:00:31.061Z,7.05
2023-01-19T01:02:58.957Z,6.85
2023-01-19T01:05:28.658Z,7.10
2023-01-19T01:07:58.228Z,7.03
2023-01-19T01:10:29.155Z,7.15
2023-01-19T01:13:20.210Z,6.28
2023-01-19T01:15:52.648Z,6.68
2023-01-19T01:18:20.551Z,6.80
2023-01-19T01:20:48.447Z,6.53
2023-01-19T01:23:15.798Z,6.68
2023-01-19T01:25:43.474Z,6.53
2023-01-19T01:28:10.694Z,6.97
2023-01-19T01:30:41.167Z,7.40
2023-01-19T01:33:11.669Z,6.18
2023-01-19T01:35:39.681Z,6.90
2023-01-19T01:38:11.662Z,6.68
2023-01-19T01:40:43.500Z,6.78
2023-01-19T01:43:15.862Z,6.72
2023-01-19T01:45:43.419Z,5.90
2023-01-19T01:48:27.797Z,6.65
2023-01-19T01:51:22.062Z,6.20
2023-01-19T01:54:07.442Z,5.95
2023-01-19T01:56:41.690Z,6.22
2023-01-19T01:59:26.019Z,6.00
2023-01-19T02:02:14.420Z,6.55
2023-01-19T02:04:56.825Z,5.68
2023-01-19T02:07:52.463Z,6.53
2023-01-19T02:10:41.042Z,5.60
2023-01-19T02:13:18.672Z,6.63
2023-01-19T02:15:49.967Z,5.45
2023-01-19T02:18:17.799Z,6.65
2023-01-19T02:21:01.171Z,5.82
2023-01-19T02:23:55.258Z,6.15
2023-01-19T02:26:23.797Z,6.22
2023-01-19T02:29:04.406Z,7.22
2023-01-19T02:31:35.739Z,6.75
2023-01-19T02:34:05.137Z,6.38
2023-01-19T02:36:44.404Z,6.70
2023-01-19T02:39:13.580Z,6.45
2023-01-19T02:41:47.667Z,6.30
2023-01-19T02:44:16.678Z,6.15
2023-01-19T02:46:44.113Z,6.70
2023-01-19T02:49:13.612Z,6.32
2023-01-19T02:51:44.443Z,6.57
2023-01-19T02:54:39.069Z,6.45
2023-01-19T02:57:15.406Z,6.18
2023-01-19T03:00:01.003Z,7.05
2023-01-19T03:02:59.827Z,7.05
2023-01-19T03:05:41.491Z,6.57
2023-01-19T03:08:19.462Z,6.50
2023-01-19T03:11:03.063Z,7.40
2023-01-19T03:18:51.940Z,6.47
2023-01-19T03:21:23.741Z,6.85
2023-01-19T03:23:52.975Z,6.75
2023-01-19T03:26:27.152Z,6.15
2023-01-19T03:28:57.854Z,6.72
2023-01-19T03:31:27.442Z,6.50
2023-01-19T03:33:59.718Z,7.05
2023-01-19T03:36:42.213Z,6.78
2023-01-19T03:39:10.923Z,6.93
2023-01-19T03:41:41.331Z,6.80
2023-01-19T03:44:12.125Z,6.65
2023-01-19T03:46:40.582Z,6.20
2023-01-19T03:49:13.346Z,5.88
2023-01-19T03:51:45.284Z,6.82
2023-01-19T03:54:12.611Z,6.25
2023-01-19T03:56:39.832Z,6.45
2023-01-19T03:59:07.490Z,6.85
2023-01-19T04:01:38.275Z,6.45
2023-01-19T04:04:05.603Z,6.55
2023-01-19T04:06:32.873Z,6.35
2023-01-19T04:09:02.898Z,6.65
2023-01-19T04:11:30.090Z,6.95
2023-01-19T04:13:57.367Z,7.03
2023-01-19T04:16:24.630Z,6.60
2023-01-19T04:18:54.067Z,7.60
2023-01-19T04:21:23.591Z,7.03
2023-01-19T04:23:50.918Z,6.68
2023-01-19T04:26:18.290Z,7.30
2023-01-19T04:28:47.923Z,6.28
2023-01-19T04:31:15.397Z,7.13
2023-01-19T04:33:42.683Z,6.78
2023-01-19T04:36:12.199Z,6.82
2023-01-19T04:38:39.424Z,7.60
2023-01-19T04:41:09.998Z,6.38
2023-01-19T04:43:39.697Z,7.07
2023-01-19T04:46:07.133Z,7.15
2023-01-19T04:48:34.492Z,7.03
2023-01-19T04:51:04.067Z,6.88
2023-01-19T04:53:31.381Z,8.05
2023-01-19T04:55:59.752Z,6.75
2023-01-19T04:58:27.133Z,7.70
2023-01-19T05:00:54.631Z,8.00
2023-01-19T05:03:25.722Z,7.35
2023-01-19T05:05:53.817Z,8.18
2023-01-19T05:08:21.448Z,8.57
2023-01-19T05:10:48.727Z,7.32
2023-01-19T05:13:16.209Z,7.93
2023-01-19T05:15:48.172Z,8.25
2023-01-19T05:18:15.564Z,7.88
2023-01-19T05:20:42.792Z,8.43
2023-01-19T05:23:10.125Z,8.23
2023-01-19T05:25:39.910Z,8.05
2023-01-19T05:28:07.107Z,8.65
2023-01-19T05:30:34.595Z,8.32
2023-01-19T05:33:02.538Z,9.13
2023-01-19T05:35:36.172Z,9.43
2023-01-19T05:38:07.010Z,9.35
2023-01-19T05:40:34.256Z,8.70
2023-01-19T05:43:05.124Z,9.80
2023-01-19T05:45:32.848Z,10.57
2023-01-19T05:48:04.919Z,10.02
2023-01-19T05:50:35.917Z,10.27
2023-01-19T05:53:03.697Z,11.07
2023-01-19T05:55:32.199Z,11.65
2023-01-19T05:57:59.507Z,11.50
2023-01-19T06:00:29.559Z,11.15
2023-01-19T06:03:00.932Z,11.55
2023-01-19T06:05:34.013Z,11.43
2023-01-19T06:08:02.168Z,11.07
2023-01-19T06:10:29.398Z,10.98
2023-01-19T06:12:59.223Z,10.32
2023-01-19T06:15:26.646Z,11.32
2023-01-19T06:17:56.127Z,10.18
2023-01-19T06:20:23.408Z,11.00
2023-01-19T06:22:50.738Z,10.88
2023-01-19T06:25:18.003Z,10.80
2023-01-19T06:27:47.879Z,11.50
2023-01-19T06:30:17.698Z,10.80
2023-01-19T06:32:47.420Z,10.68
2023-01-19T06:35:17.400Z,10.48
2023-01-19T06:37:44.619Z,10.65
2023-01-19T06:40:13.704Z,10.98
2023-01-19T06:42:41.703Z,9.73
2023-01-19T06:45:10.157Z,10.90
2023-01-19T06:47:37.697Z,10.60
2023-01-19T06:50:07.490Z,10.88
2023-01-19T06:52:42.125Z,10.57
2023-01-19T06:55:13.787Z,10.95
2023-01-19T06:57:41.501Z,10.48
2023-01-19T07:00:09.431Z,11.30
2023-01-19T07:02:37.033Z,10.90
2023-01-19T07:05:09.232Z,11.55
2023-01-19T07:07:39.588Z,10.60
2023-01-19T07:10:08.272Z,10.98
2023-01-19T07:12:38.477Z,10.65
2023-01-19T07:15:09.542Z,10.60
2023-01-19T07:17:36.800Z,10.90
2023-01-19T07:20:04.399Z,11.40
2023-01-19T07:22:34.303Z,10.70
2023-01-19T07:25:01.750Z,10.65
2023-01-19T07:27:31.318Z,11.00
2023-01-19T07:29:59.857Z,10.27
2023-01-19T07:32:28.184Z,10.70
2023-01-19T07:34:57.618Z,10.70
2023-01-19T07:37:24.897Z,10.68
2023-01-19T07:39:52.174Z,9.95
2023-01-19T07:42:19.507Z,10.57
2023-01-19T07:44:46.933Z,11.65
2023-01-19T07:47:14.468Z,10.90
2023-01-19T07:49:42.367Z,11.23
2023-01-19T07:52:09.932Z,11.05
2023-01-19T07:54:38.420Z,10.57
2023-01-19T07:57:05.721Z,10.23
2023-01-19T07:59:33.173Z,12.68
2023-01-19T08:02:00.627Z,13.10
2023-01-19T08:04:32.507Z,12.38
2023-01-19T08:06:59.871Z,12.80
2023-01-19T08:09:27.123Z,12.90
2023-01-19T08:11:54.419Z,12.02
2023-01-19T08:14:23.831Z,13.43
2023-01-19T08:16:51.099Z,11.75
2023-01-19T08:19:20.772Z,14.15
2023-01-19T08:21:48.018Z,11.95
2023-01-19T08:24:21.544Z,10.38
2023-01-19T08:26:57.712Z,10.23
2023-01-19T08:29:25.183Z,10.93
2023-01-19T08:31:55.326Z,10.70
2023-01-19T08:34:24.974Z,11.25
2023-01-19T08:36:52.202Z,10.88
2023-01-19T08:39:19.493Z,10.98
2023-01-19T08:41:46.775Z,9.52
2023-01-19T08:44:14.225Z,10.13
2023-01-19T08:46:41.712Z,10.00
2023-01-19T08:49:09.312Z,9.57
2023-01-19T08:51:39.439Z,10.07
2023-01-19T08:54:09.893Z,10.38
2023-01-19T08:56:37.209Z,8.85
2023-01-19T08:59:09.959Z,9.25
2023-01-19T09:04:05.452Z,9.15
2023-01-19T09:06:32.895Z,9.73
2023-01-19T09:09:00.168Z,9.23
2023-01-19T09:11:27.588Z,10.55
2023-01-19T09:13:56.979Z,9.55
2023-01-19T09:16:27.098Z,9.75
2023-01-19T09:18:54.463Z,8.70
2023-01-19T09:21:21.725Z,8.85
2023-01-19T09:23:49.391Z,9.23
2023-01-19T09:26:16.751Z,9.25
2023-01-19T09:28:44.027Z,9.52
2023-01-19T09:31:11.433Z,8.25
2023-01-19T09:33:38.927Z,8.50
2023-01-19T09:36:06.596Z,8.02
2023-01-19T09:38:34.144Z,8.27
2023-01-19T09:41:01.543Z,8.77
2023-01-19T09:43:31.756Z,8.10
2023-01-19T09:45:59.931Z,8.10
2023-01-19T09:48:47.142Z,8.13
2023-01-19T09:51:23.868Z,6.88
2023-01-19T09:54:15.821Z,8.15
2023-01-19T09:56:44.610Z,8.68
2023-01-19T09:59:28.784Z,8.85
2023-01-19T10:02:17.547Z,8.15
2023-01-19T10:05:12.235Z,7.88
2023-01-19T10:07:43.940Z,7.93
2023-01-19T10:10:29.390Z,9.15
2023-01-19T10:13:11.581Z,8.18
2023-01-19T10:16:03.632Z,7.90
2023-01-19T10:18:47.689Z,8.38
2023-01-19T10:21:22.724Z,8.38
2023-01-19T10:24:01.550Z,8.52
2023-01-19T10:26:59.550Z,8.82
2023-01-19T10:29:36.617Z,8.98
2023-01-19T10:32:22.298Z,8.48
2023-01-19T10:34:57.057Z,7.75
2023-01-19T10:37:37.785Z,7.13
2023-01-19T10:40:13.882Z,7.03
2023-01-19T10:42:42.575Z,7.18
2023-01-19T10:45:21.746Z,7.63
2023-01-19T10:47:49.675Z,8.23
2023-01-19T10:50:39.928Z,7.32
2023-01-19T10:53:22.065Z,6.97
2023-01-19T10:56:24.561Z,6.07
2023-01-19T10:58:52.305Z,8.55
2023-01-19T11:01:30.637Z,7.60
2023-01-19T11:04:05.668Z,7.10
2023-01-19T11:06:35.409Z,6.90
2023-01-19T11:09:19.583Z,7.75
2023-01-19T11:11:52.244Z,7.65
2023-01-19T11:14:25.101Z,7.65
2023-01-19T11:16:55.583Z,7.40
2023-01-19T11:19:30.068Z,7.18
2023-01-19T11:22:22.313Z,7.28
2023-01-19T11:24:50.632Z,7.22
2023-01-19T11:27:20.774Z,7.32
2023-01-19T11:30:10.484Z,7.10
2023-01-19T11:32:37.806Z,6.57
2023-01-19T11:35:45.711Z,6.80
2023-01-19T11:38:12.930Z,7.45
2023-01-19T11:40:42.071Z,7.63
2023-01-19T11:43:13.868Z,7.45
2023-01-19T11:45:46.183Z,7.28
2023-01-19T11:48:24.326Z,7.07
2023-01-19T11:50:51.888Z,6.40
2023-01-19T11:53:25.892Z,6.55
2023-01-19T11:56:03.069Z,7.05
2023-01-19T11:58:32.785Z,6.32
2023-01-19T12:01:21.182Z,6.10
2023-01-19T12:04:05.823Z,6.55
2023-01-19T12:06:41.569Z,6.43
2023-01-19T12:09:20.115Z,6.38
2023-01-19T12:11:55.342Z,5.93
2023-01-19T12:14:50.029Z,6.40
2023-01-19T12:17:31.206Z,6.35
2023-01-19T12:20:24.645Z,6.07
2023-01-19T12:23:20.685Z,6.40
2023-01-19T12:25:59.785Z,6.20
2023-01-19T12:28:34.978Z,6.13
2023-01-19T12:31:02.779Z,6.00
2023-01-19T12:33:40.074Z,6.65
2023-01-19T12:36:14.166Z,6.25
2023-01-19T12:38:54.979Z,6.38
2023-01-19T12:41:30.148Z,6.72
2023-01-19T12:44:13.946Z,6.45
2023-01-19T12:47:04.294Z,7.15
2023-01-19T12:49:45.057Z,7.32
2023-01-19T12:52:21.170Z,6.50
2023-01-19T12:55:09.692Z,6.95
2023-01-19T12:57:58.517Z,7.95
2023-01-19T13:00:33.009Z,7.18
2023-01-19T13:03:40.755Z,7.25
2023-01-19T13:06:10.680Z,7.63
2023-01-19T13:09:00.934Z,7.15
2023-01-19T13:11:33.346Z,7.35
2023-01-19T13:14:01.590Z,7.00
2023-01-19T13:16:32.013Z,8.15
2023-01-19T13:19:14.337Z,6.65
2023-01-19T13:21:47.548Z,6.60
2023-01-19T13:24:17.611Z,7.30
2023-01-19T13:26:51.495Z,7.25
2023-01-19T13:29:26.265Z,6.13
2023-01-19T13:32:02.549Z,6.93
2023-01-19T13:34:53.074Z,7.75
2023-01-19T13:37:29.039Z,7.03
2023-01-19T13:39:57.153Z,8.15
2023-01-19T13:42:38.990Z,7.07
2023-01-19T13:45:28.291Z,7.32
2023-01-19T13:47:59.453Z,6.20
2023-01-19T13:50:35.250Z,7.25
2023-01-19T13:53:04.751Z,6.28
2023-01-19T13:55:32.415Z,6.90
2023-01-19T13:57:59.707Z,6.10
2023-01-19T14:00:29.601Z,6.35
2023-01-19T14:02:57.454Z,6.88
2023-01-19T14:05:35.084Z,7.18
2023-01-19T14:08:13.436Z,6.68
2023-01-19T14:10:40.877Z,6.15
2023-01-19T14:13:29.795Z,6.95
2023-01-19T14:16:04.773Z,6.03
2023-01-19T14:18:38.512Z,6.20
2023-01-19T14:21:08.920Z,5.72
2023-01-19T14:23:52.221Z,6.32
2023-01-19T14:26:43.032Z,6.10
2023-01-19T14:29:10.253Z,5.82
2023-01-19T14:31:47.842Z,6.07
2023-01-19T14:34:33.706Z,6.05
2023-01-19T14:37:02.871Z,6.00
2023-01-19T14:39:33.332Z,5.70
2023-01-19T14:42:04.066Z,6.00
2023-01-19T14:44:31.282Z,6.43
2023-01-19T14:46:59.669Z,6.53
2023-01-19T14:49:27.018Z,5.15
2023-01-19T14:51:57.047Z,5.68
2023-01-19T14:54:45.661Z,5.50
2023-01-19T14:57:14.073Z,5.38
2023-01-19T14:59:42.315Z,5.68
2023-01-19T15:02:11.984Z,5.25
2023-01-19T15:04:41.800Z,5.32
2023-01-19T15:07:19.407Z,5.60
2023-01-19T15:09:50.569Z,5.13
2023-01-19T15:12:18.968Z,5.85
2023-01-19T15:14:48.864Z,5.97
2023-01-19T15:17:25.246Z,5.85
2023-01-19T15:19:54.264Z,5.55
2023-01-19T15:22:26.818Z,5.93
2023-01-19T15:24:57.646Z,7.17
2023-01-19T15:27:27.371Z,6.43
2023-01-19T15:29:54.684Z,5.63
2023-01-19T15:32:21.933Z,6.38
2023-01-19T15:34:49.232Z,6.10
2023-01-19T15:37:18.974Z,6.18
2023-01-19T15:39:46.259Z,6.03
2023-01-19T15:42:15.545Z,5.10
2023-01-19T15:44:42.900Z,5.85
2023-01-19T15:47:10.872Z,5.50
2023-01-19T15:49:43.015Z,5.35
2023-01-19T15:52:10.411Z,6.45
2023-01-19T15:54:37.770Z,5.32
2023-01-19T15:57:08.266Z,5.50
2023-01-19T15:59:35.611Z,5.55
2023-01-19T16:02:03.902Z,5.75
2023-01-19T16:04:33.738Z,6.50
2023-01-19T16:07:03.636Z,5.75
2023-01-19T16:09:33.356Z,5.70
2023-01-19T16:12:00.646Z,6.22
2023-01-19T16:14:27.933Z,5.95
2023-01-19T16:16:59.956Z,6.55
2023-01-19T16:19:27.286Z,6.60
2023-01-19T16:21:54.616Z,7.15
2023-01-19T16:24:21.897Z,6.80
2023-01-19T16:26:49.241Z,7.18
2023-01-19T16:29:18.691Z,7.72
2023-01-19T16:31:46.106Z,7.72
2023-01-19T16:34:13.646Z,7.28
2023-01-19T16:36:42.617Z,6.82
2023-01-19T16:39:13.722Z,7.15
2023-01-19T16:41:46.864Z,6.97
2023-01-19T16:44:16.206Z,7.32
2023-01-19T16:46:52.923Z,7.22
2023-01-19T16:49:28.509Z,7.82
2023-01-19T16:51:58.383Z,9.25
2023-01-19T16:54:29.872Z,9.52
2023-01-19T16:56:57.807Z,8.20
2023-01-19T16:59:27.060Z,7.90
2023-01-19T17:01:54.858Z,9.48
2023-01-19T17:04:25.149Z,8.55
2023-01-19T17:06:52.698Z,8.23
2023-01-19T17:09:20.042Z,8.57
2023-01-19T17:11:49.804Z,9.15
2023-01-19T17:14:22.217Z,12.07
2023-01-19T17:16:50.105Z,10.83
2023-01-19T17:19:19.444Z,9.93
2023-01-19T17:21:51.328Z,10.48
2023-01-19T17:24:18.827Z,13.18
2023-01-19T17:26:48.595Z,11.90
2023-01-19T17:29:16.643Z,10.63
2023-01-19T17:31:44.687Z,10.38
2023-01-19T17:34:14.252Z,8.43
2023-01-19T17:36:41.591Z,10.48
2023-01-19T17:39:16.884Z,9.27
2023-01-19T17:41:44.538Z,11.23
2023-01-19T17:44:11.958Z,9.45
2023-01-19T17:46:42.016Z,8.55
2023-01-19T17:49:10.651Z,9.23
2023-01-19T17:51:37.972Z,9.45
2023-01-19T17:54:07.938Z,9.27
2023-01-19T17:56:36.776Z,8.43
2023-01-19T17:59:08.403Z,9.05
2023-01-19T18:01:39.861Z,11.27
2023-01-19T18:04:08.635Z,10.65
2023-01-19T18:06:37.041Z,11.27
2023-01-19T18:09:06.818Z,8.93
2023-01-19T18:11:34.979Z,10.45
2023-01-19T18:14:02.399Z,10.48
2023-01-19T18:16:32.576Z,9.63
2023-01-19T18:18:59.913Z,7.93
2023-01-19T18:21:28.831Z,7.85
2023-01-19T18:24:04.208Z,8.32
2023-01-19T18:26:34.316Z,8.25
2023-01-19T18:29:01.850Z,9.30
2023-01-19T18:31:29.262Z,10.50
2023-01-19T18:33:59.139Z,9.00
2023-01-19T18:36:26.775Z,10.38
2023-01-19T18:38:56.318Z,9.15
2023-01-19T18:41:23.563Z,8.93
2023-01-19T18:43:52.133Z,9.18
2023-01-19T18:46:22.208Z,10.43
2023-01-19T18:48:54.173Z,9.70
2023-01-19T18:51:23.939Z,9.73
2023-01-19T18:53:54.069Z,9.63
2023-01-19T18:56:21.543Z,8.65
2023-01-19T18:58:48.867Z,9.20
2023-01-19T19:01:29.750Z,10.52
2023-01-19T19:03:58.883Z,9.67
2023-01-19T19:06:29.107Z,8.60
2023-01-19T19:09:03.331Z,9.73
2023-01-19T19:11:30.790Z,9.32
2023-01-19T19:14:00.615Z,10.18
2023-01-19T19:16:29.724Z,9.05
2023-01-19T19:19:00.314Z,10.35
2023-01-19T19:21:29.780Z,9.25
2023-01-19T19:23:59.236Z,9.73
2023-01-19T19:26:30.790Z,10.90
2023-01-19T19:29:00.911Z,10.93
2023-01-19T19:31:30.170Z,9.82
2023-01-19T19:34:00.844Z,10.88
2023-01-19T19:36:29.121Z,10.90
2023-01-19T19:38:58.376Z,12.57
2023-01-19T19:41:27.297Z,12.00
2023-01-19T19:43:55.545Z,13.65
2023-01-19T19:46:24.324Z,14.57
2023-01-19T19:48:54.628Z,14.80
2023-01-19T19:51:27.141Z,15.18
2023-01-19T19:53:56.682Z,12.77
2023-01-19T19:56:25.342Z,13.73
2023-01-19T19:58:59.041Z,12.45
2023-01-19T20:01:32.575Z,12.02
2023-01-19T20:04:11.189Z,12.82
2023-01-19T20:06:47.713Z,10.40
2023-01-19T20:09:16.969Z,11.07
2023-01-19T20:11:45.480Z,11.10
2023-01-19T20:14:16.238Z,11.55
2023-01-19T20:16:46.407Z,10.88
2023-01-19T20:19:14.158Z,11.32
2023-01-19T20:21:42.286Z,12.93
2023-01-19T20:24:18.614Z,11.40
2023-01-19T20:26:52.363Z,11.68
2023-01-19T20:29:20.654Z,11.85
2023-01-19T20:31:52.606Z,11.50
2023-01-19T20:34:22.611Z,13.52
2023-01-19T20:36:51.683Z,15.00
2023-01-19T20:39:19.723Z,13.52
2023-01-19T20:41:49.013Z,11.85
2023-01-19T20:44:21.445Z,12.88
2023-01-19T20:46:51.424Z,12.57
2023-01-19T20:49:19.095Z,13.63
2023-01-19T20:51:46.986Z,11.50
2023-01-19T20:54:17.304Z,11.90
2023-01-19T20:56:44.579Z,12.02
2023-01-19T20:59:12.678Z,11.63
2023-01-19T21:01:41.039Z,11.80
2023-01-19T21:04:09.004Z,11.90
2023-01-19T21:06:36.569Z,11.52
2023-01-19T21:09:04.645Z,11.90
2023-01-19T21:11:32.002Z,12.27
2023-01-19T21:13:59.312Z,12.57
2023-01-19T21:16:29.025Z,11.25
2023-01-19T21:18:58.841Z,12.43
2023-01-19T21:21:31.429Z,12.48
2023-01-19T21:24:01.326Z,12.63
2023-01-19T21:26:33.492Z,11.82
2023-01-19T21:29:02.424Z,11.83
2023-01-19T21:31:30.966Z,13.43
2023-01-19T21:34:00.896Z,12.15
2023-01-19T21:36:30.609Z,12.77
2023-01-19T21:39:00.733Z,13.45
2023-01-19T21:41:29.980Z,13.45
2023-01-19T21:43:58.481Z,13.50
2023-01-19T21:46:29.139Z,12.73
2023-01-19T21:49:01.114Z,13.30
2023-01-19T21:51:33.731Z,13.00
2023-01-19T21:54:02.331Z,14.10
2023-01-19T21:56:30.611Z,13.13
2023-01-19T21:58:58.538Z,14.70
2023-01-19T22:01:26.084Z,14.07
2023-01-19T22:03:54.909Z,13.43
2023-01-19T22:06:22.530Z,13.93
2023-01-19T22:08:52.210Z,13.38
2023-01-19T22:11:20.953Z,12.68
2023-01-19T22:13:48.703Z,13.45
2023-01-19T22:16:24.064Z,13.88
2023-01-19T22:18:54.056Z,13.85
2023-01-19T22:21:23.968Z,12.30
2023-01-19T22:23:56.259Z,13.55
2023-01-19T22:26:23.956Z,14.80
2023-01-19T22:28:56.182Z,14.02
2023-01-19T22:31:24.733Z,13.80
2023-01-19T22:33:52.426Z,13.00
2023-01-19T22:36:24.828Z,12.88
2023-01-19T22:38:57.401Z,13.27
2023-01-19T22:41:35.899Z,11.60
2023-01-19T22:44:07.234Z,12.13
2023-01-19T22:46:38.527Z,13.45
2023-01-19T22:49:10.832Z,12.70
2023-01-19T22:51:42.971Z,12.30
2023-01-19T22:54:10.849Z,11.35
2023-01-19T22:56:42.000Z,12.07
2023-01-19T22:59:09.664Z,11.02
2023-01-19T23:01:42.170Z,12.32
2023-01-19T23:04:15.736Z,12.18
2023-01-19T23:06:43.331Z,11.70
2023-01-19T23:09:13.840Z,11.35
2023-01-19T23:11:48.479Z,11.20
2023-01-19T23:14:20.531Z,11.45
2023-01-19T23:16:50.662Z,11.32
2023-01-19T23:19:20.187Z,11.48
2023-01-19T23:21:51.951Z,11.75
2023-01-19T23:24:19.224Z,11.48
2023-01-19T23:26:48.751Z,11.85
2023-01-19T23:29:18.533Z,12.10
2023-01-19T23:31:47.587Z,12.07
2023-01-19T23:34:15.288Z,11.45
2023-01-19T23:36:42.841Z,11.65
2023-01-19T23:39:16.658Z,11.00
2023-01-19T23:41:44.093Z,10.85
2023-01-19T23:44:11.567Z,10.50
2023-01-19T23:46:38.888Z,11.10
2023-01-19T23:49:06.147Z,11.73
2023-01-19T23:51:36.088Z,10.90
2023-01-19T23:54:05.876Z,11.88
2023-01-19T23:56:35.613Z,10.82
2023-01-19T23:59:11.186Z,10.50
